Time;durP1;ratioP1;P1;durP2;ratioP2;P2;SDS_P1;SDS_P2;PMS_P1;PMS_P2;Temp;Humidity;BMP_temperature;BMP_pressure;BME280_temperature;BME280_humidity;BME280_pressure;Samples;Min_cycle;Max_cycle;Signal;HPM_P1;HPM_P2
2024/01/26 00:01:29;;;;;;;;;;;;;;;7.70;100.00;101885.97;4896138;29;19927;-78
2024/01/26 00:03:57;;;;;;;;;;;;;;;7.76;100.00;101879.16;4897176;29;20583;-77
2024/01/26 00:06:22;;;;;;;;;;;;;;;7.70;100.00;101873.41;4895983;29;19927;-78
2024/01/26 00:08:47;;;;;;;;;;;;;;;7.79;100.00;101878.84;4896146;29;19924;-78
2024/01/26 00:11:13;;;;;;;;;;;;;;;7.84;100.00;101884.59;4895950;29;19979;-77
2024/01/26 00:13:38;;;;;;;;;;;;;;;7.80;100.00;101872.47;4895463;29;20025;-78
2024/01/26 00:16:04;;;;;;;;;;;;;;;7.85;100.00;101870.19;4895571;29;20357;-78
2024/01/26 00:18:29;;;;;;;;;;;;;;;7.81;100.00;101868.81;4895999;29;20343;-77
2024/01/26 00:20:54;;;;;;;;;;;;;;;7.74;100.00;101874.81;4896195;29;19983;-78
2024/01/26 00:23:19;;;;;;;;;;;;;;;7.81;100.00;101876.84;4896201;29;19927;-78
2024/01/26 00:25:45;;;;;;;;;;;;;;;7.84;100.00;101868.50;4895336;29;19939;-78
2024/01/26 00:28:11;;;;;;;;;;;;;;;7.90;100.00;101862.53;4895970;29;19927;-78
2024/01/26 00:30:36;;;;;;;;;;;;;;;7.92;100.00;101870.41;4895880;29;19939;-78
2024/01/26 00:33:01;;;;;;;;;;;;;;;7.91;100.00;101866.06;4895989;29;19923;-78
2024/01/26 00:35:26;;;;;;;;;;;;;;;7.93;100.00;101859.56;4895993;29;19930;-78
2024/01/26 00:37:51;;;;;;;;;;;;;;;7.91;100.00;101858.88;4895616;29;19923;-78
2024/01/26 00:40:17;;;;;;;;;;;;;;;7.95;100.00;101860.22;4895603;29;20547;-78
2024/01/26 00:42:42;;;;;;;;;;;;;;;7.97;100.00;101868.13;4895631;29;20454;-77
2024/01/26 00:45:07;;;;;;;;;;;;;;;7.98;100.00;101854.56;4895443;29;20070;-78
2024/01/26 00:47:33;;;;;;;;;;;;;;;7.85;100.00;101857.63;4878968;29;19978;-78
2024/01/26 00:49:58;;;;;;;;;;;;;;;7.88;100.00;101859.16;4896164;29;20304;-78
2024/01/26 00:52:23;;;;;;;;;;;;;;;7.94;100.00;101853.19;4895562;29;19923;-77
2024/01/26 00:54:49;;;;;;;;;;;;;;;7.93;100.00;101846.16;4894622;29;20009;-78
2024/01/26 00:57:14;;;;;;;;;;;;;;;7.96;100.00;101842.31;4895576;29;19966;-78
2024/01/26 00:59:39;;;;;;;;;;;;;;;7.96;100.00;101829.72;4895524;29;19972;-78
2024/01/26 01:02:04;;;;;;;;;;;;;;;7.92;100.00;101831.06;4895248;29;19966;-78
2024/01/26 01:04:30;;;;;;;;;;;;;;;7.96;100.00;101829.72;4896597;29;20406;-76
2024/01/26 01:06:56;;;;;;;;;;;;;;;7.96;100.00;101834.25;4895416;29;19923;-77
2024/01/26 01:09:21;;;;;;;;;;;;;;;7.98;100.00;101834.97;4890856;29;19987;-77
2024/01/26 01:11:46;;;;;;;;;;;;;;;7.98;100.00;101833.09;4893633;29;19959;-77
2024/01/26 01:14:12;;;;;;;;;;;;;;;7.96;100.00;101835.09;4895617;29;19958;-78
2024/01/26 01:16:39;;;;;;;;;;;;;;;7.96;100.00;101840.44;4894865;29;19923;-76
2024/01/26 01:19:05;;;;;;;;;;;;;;;8.01;100.00;101831.97;4896326;29;19927;-78
2024/01/26 01:21:30;;;;;;;;;;;;;;;8.03;100.00;101833.47;4896104;29;19923;-76
2024/01/26 01:23:55;;;;;;;;;;;;;;;8.04;100.00;101842.34;4894868;29;20296;-76
2024/01/26 01:26:21;;;;;;;;;;;;;;;8.02;100.00;101839.00;4898355;29;19924;-79
2024/01/26 01:28:46;;;;;;;;;;;;;;;8.07;100.00;101839.38;4900140;29;19942;-78
2024/01/26 01:31:11;;;;;;;;;;;;;;;8.08;100.00;101845.59;4898549;29;19932;-78
2024/01/26 01:33:36;;;;;;;;;;;;;;;7.99;100.00;101845.50;4900765;29;20295;-77
2024/01/26 01:36:02;;;;;;;;;;;;;;;8.07;100.00;101842.06;4905169;29;19923;-77
2024/01/26 01:38:27;;;;;;;;;;;;;;;8.04;100.00;101837.84;4908004;29;19930;-77
2024/01/26 01:40:52;;;;;;;;;;;;;;;8.04;100.00;101842.34;4910734;29;19962;-77
2024/01/26 01:43:17;;;;;;;;;;;;;;;8.08;100.00;101840.22;4899705;29;20034;-77
2024/01/26 01:45:43;;;;;;;;;;;;;;;8.11;100.00;101835.38;4898932;29;19958;-77
2024/01/26 01:48:08;;;;;;;;;;;;;;;8.04;100.00;101820.91;4899429;29;19919;-78
2024/01/26 01:50:33;;;;;;;;;;;;;;;8.08;100.00;101816.91;4899325;29;20018;-77
2024/01/26 01:52:58;;;;;;;;;;;;;;;8.03;100.00;101820.06;4881713;29;19934;-77
2024/01/26 01:55:24;;;;;;;;;;;;;;;8.10;100.00;101808.72;4883556;29;19923;-77
2024/01/26 01:57:49;;;;;;;;;;;;;;;8.11;100.00;101799.69;4882836;29;19934;-76
2024/01/26 02:00:17;;;;;;;;;;;;;;;8.12;100.00;101801.38;4897923;29;19928;-77
2024/01/26 02:02:46;;;;;;;;;;;;;;;8.12;100.00;101810.25;4898964;29;19919;-77
2024/01/26 02:05:11;;;;;;;;;;;;;;;8.08;100.00;101805.38;4899012;29;19972;-77
2024/01/26 02:07:37;;;;;;;;;;;;;;;8.09;100.00;101790.97;4890361;29;19924;-77
2024/01/26 02:10:07;;;;;;;;;;;;;;;8.11;100.00;101788.97;4879632;29;20387;-77
2024/01/26 02:12:32;;;;;;;;;;;;;;;8.12;100.00;101796.84;4872515;29;20416;-77
2024/01/26 02:14:57;;;;;;;;;;;;;;;8.13;100.00;101790.47;4879322;29;19924;-77
2024/01/26 02:17:29;;;;;;;;;;;;;;;8.12;100.00;101785.28;4879745;29;19928;-78
2024/01/26 02:19:54;;;;;;;;;;;;;;;8.14;100.00;101784.13;4879539;29;19924;-77
2024/01/26 02:22:22;;;;;;;;;;;;;;;8.14;100.00;101773.38;4879477;29;19931;-77
2024/01/26 02:24:47;;;;;;;;;;;;;;;8.12;100.00;101769.19;4879562;29;19931;-77
2024/01/26 02:27:13;;;;;;;;;;;;;;;8.08;100.00;101773.19;4879675;29;19934;-77
2024/01/26 02:29:38;;;;;;;;;;;;;;;8.11;100.00;101783.59;4879203;29;19928;-77
2024/01/26 02:32:03;;;;;;;;;;;;;;;8.19;100.00;101775.59;4879105;29;20026;-77
2024/01/26 02:34:29;;;;;;;;;;;;;;;8.17;100.00;101778.44;4879645;29;19920;-77
2024/01/26 02:36:54;;;;;;;;;;;;;;;8.18;100.00;101763.19;4878049;29;19924;-77
2024/01/26 02:39:19;;;;;;;;;;;;;;;8.08;100.00;101763.28;4878836;29;19935;-76
2024/01/26 02:41:44;;;;;;;;;;;;;;;8.11;100.00;101768.34;4879360;29;19926;-77
2024/01/26 02:44:09;;;;;;;;;;;;;;;8.21;100.00;101762.88;4879258;29;20014;-77
2024/01/26 02:46:35;;;;;;;;;;;;;;;8.24;100.00;101762.56;4879427;29;20059;-76
2024/01/26 02:49:01;;;;;;;;;;;;;;;8.22;100.00;101769.06;4878866;29;20002;-77
2024/01/26 02:51:26;;;;;;;;;;;;;;;8.24;100.00;101767.91;4878472;29;20329;-77
2024/01/26 02:53:52;;;;;;;;;;;;;;;8.27;100.00;101756.88;4878409;29;19927;-77
2024/01/26 02:56:17;;;;;;;;;;;;;;;8.26;100.00;101749.81;4878889;29;19927;-76
2024/01/26 02:58:42;;;;;;;;;;;;;;;8.26;100.00;101723.00;4879012;29;20002;-77
2024/01/26 03:01:11;;;;;;;;;;;;;;;8.25;100.00;101715.94;4878614;29;19924;-78
2024/01/26 03:03:36;;;;;;;;;;;;;;;8.29;100.00;101719.16;4878409;29;20377;-78
2024/01/26 03:06:01;;;;;;;;;;;;;;;8.30;100.00;101718.16;4877905;29;19927;-78
2024/01/26 03:08:26;;;;;;;;;;;;;;;8.28;100.00;101714.78;4891532;29;19924;-77
2024/01/26 03:10:52;;;;;;;;;;;;;;;8.27;100.00;101713.94;4903702;23;19941;-78
2024/01/26 03:13:18;;;;;;;;;;;;;;;8.27;100.00;101711.28;4897440;29;19995;-78
2024/01/26 03:15:43;;;;;;;;;;;;;;;8.25;100.00;101702.53;4896474;29;19931;-79
2024/01/26 03:18:08;;;;;;;;;;;;;;;8.30;100.00;101694.81;4897495;29;20003;-82
2024/01/26 03:20:34;;;;;;;;;;;;;;;8.32;100.00;101692.81;4896567;29;19928;-81
2024/01/26 03:23:00;;;;;;;;;;;;;;;8.32;100.00;101690.16;4895899;29;20361;-81
2024/01/26 03:25:25;;;;;;;;;;;;;;;8.32;100.00;101681.28;4897251;29;19971;-81
2024/01/26 03:27:50;;;;;;;;;;;;;;;8.32;100.00;101684.78;4893205;29;19931;-81
2024/01/26 03:30:16;;;;;;;;;;;;;;;8.32;100.00;101690.16;4890808;29;19986;-81
2024/01/26 03:32:47;;;;;;;;;;;;;;;8.32;100.00;101687.47;4898103;29;19923;-81
2024/01/26 03:35:12;;;;;;;;;;;;;;;8.34;100.00;101672.06;4896232;29;19960;-81
2024/01/26 03:37:38;;;;;;;;;;;;;;;8.34;100.00;101663.19;4895876;29;19923;-81
2024/01/26 03:40:04;;;;;;;;;;;;;;;8.38;100.00;101671.72;4896868;29;20015;-81
2024/01/26 03:42:29;;;;;;;;;;;;;;;8.34;100.00;101669.38;4896853;29;20014;-81
2024/01/26 03:44:54;;;;;;;;;;;;;;;8.34;100.00;101655.13;4895757;29;20027;-81
2024/01/26 03:47:19;;;;;;;;;;;;;;;8.35;100.00;101649.59;4897790;29;19924;-81
2024/01/26 03:49:45;;;;;;;;;;;;;;;8.34;100.00;101661.31;4896830;29;19946;-80
2024/01/26 03:52:11;;;;;;;;;;;;;;;8.35;100.00;101649.59;4896156;29;20410;-81
2024/01/26 03:54:36;;;;;;;;;;;;;;;8.36;100.00;101637.03;4896955;29;20041;-81
2024/01/26 03:57:02;;;;;;;;;;;;;;;8.39;100.00;101635.84;4897237;29;19930;-80
2024/01/26 03:59:27;;;;;;;;;;;;;;;8.42;100.00;101636.34;4895650;29;19924;-80
2024/01/26 04:01:52;;;;;;;;;;;;;;;8.40;100.00;101627.63;4896926;29;19931;-80
2024/01/26 04:04:20;;;;;;;;;;;;;;;8.42;100.00;101624.78;4896523;29;20067;-80
2024/01/26 04:06:46;;;;;;;;;;;;;;;8.44;100.00;101606.69;4895314;29;19924;-80
2024/01/26 04:09:11;;;;;;;;;;;;;;;8.45;100.00;101611.06;4896933;29;19947;-79
2024/01/26 04:11:36;;;;;;;;;;;;;;;8.46;100.00;101599.31;4896928;29;19924;-80
2024/01/26 04:14:01;;;;;;;;;;;;;;;8.46;100.00;101597.47;4895076;29;20026;-80
2024/01/26 04:16:27;;;;;;;;;;;;;;;8.46;100.00;101589.41;4896705;29;19958;-80
2024/01/26 04:18:52;;;;;;;;;;;;;;;8.48;100.00;101578.53;4896617;29;19995;-80
2024/01/26 04:21:17;;;;;;;;;;;;;;;8.51;100.00;101597.00;4895977;29;20022;-80
2024/01/26 04:23:42;;;;;;;;;;;;;;;8.53;100.00;101576.22;4896557;29;20023;-80
2024/01/26 04:26:07;;;;;;;;;;;;;;;8.53;100.00;101592.31;4896743;29;20006;-80
2024/01/26 04:28:33;;;;;;;;;;;;;;;8.56;100.00;101583.94;4896349;29;19958;-80
2024/01/26 04:30:58;;;;;;;;;;;;;;;8.57;100.00;101580.25;4895860;29;20014;-80
2024/01/26 04:33:23;;;;;;;;;;;;;;;8.58;100.00;101571.19;4896565;29;19943;-80
2024/01/26 04:35:48;;;;;;;;;;;;;;;8.56;100.00;101562.47;4896042;29;19932;-81
2024/01/26 04:38:13;;;;;;;;;;;;;;;8.56;100.00;101583.94;4896193;29;19924;-81
2024/01/26 04:40:40;;;;;;;;;;;;;;;8.53;100.00;101578.88;4895919;29;19930;-81
2024/01/26 04:43:05;;;;;;;;;;;;;;;8.58;100.00;101573.88;4896103;29;20284;-81
2024/01/26 04:45:30;;;;;;;;;;;;;;;8.54;100.00;101564.47;4895347;29;19927;-81
2024/01/26 04:47:55;;;;;;;;;;;;;;;8.56;100.00;101561.63;4896148;29;19928;-81
2024/01/26 04:50:23;;;;;;;;;;;;;;;8.59;100.00;101567.50;4896018;29;20506;-81
2024/01/26 04:52:52;;;;;;;;;;;;;;;8.55;100.00;101547.38;4896161;29;19943;-81
2024/01/26 04:55:25;;;;;;;;;;;;;;;8.61;100.00;101546.72;4896085;29;19924;-81
2024/01/26 04:57:50;;;;;;;;;;;;;;;8.64;100.00;101564.31;4888636;29;19934;-80
2024/01/26 05:00:17;;;;;;;;;;;;;;;8.62;100.00;101551.06;4896257;29;19923;-81
2024/01/26 05:02:43;;;;;;;;;;;;;;;8.61;100.00;101546.72;4900303;29;19920;-81
2024/01/26 05:05:08;;;;;;;;;;;;;;;8.57;100.00;101548.03;4899435;29;19924;-81
2024/01/26 05:07:33;;;;;;;;;;;;;;;8.63;100.00;101550.06;4900084;29;19931;-81
2024/01/26 05:09:58;;;;;;;;;;;;;;;8.64;100.00;101543.69;4899633;29;20277;-81
2024/01/26 05:12:24;;;;;;;;;;;;;;;8.65;100.00;101539.16;4899359;29;20434;-81
2024/01/26 05:14:49;;;;;;;;;;;;;;;8.57;100.00;101529.25;4899438;29;20340;-81
2024/01/26 05:17:14;;;;;;;;;;;;;;;8.61;100.00;101517.19;4898980;29;19919;-82
2024/01/26 05:19:39;;;;;;;;;;;;;;;8.62;100.00;101513.50;4898423;29;19927;-81
2024/01/26 05:22:05;;;;;;;;;;;;;;;8.67;100.00;101520.19;4899706;29;20364;-80
2024/01/26 05:24:30;;;;;;;;;;;;;;;8.65;100.00;101499.72;4898583;29;20561;-81
2024/01/26 05:26:55;;;;;;;;;;;;;;;8.64;100.00;101497.22;4906939;23;19923;-81
2024/01/26 05:29:20;;;;;;;;;;;;;;;8.65;100.00;101497.03;4898362;29;19927;-80
2024/01/26 05:31:46;;;;;;;;;;;;;;;8.66;100.00;101505.94;4899069;29;19923;-80
2024/01/26 05:34:11;;;;;;;;;;;;;;;8.65;100.00;101507.75;4898875;29;19923;-80
2024/01/26 05:36:48;;;;;;;;;;;;;;;8.60;100.00;101503.91;4898760;29;19923;-81
2024/01/26 05:39:14;;;;;;;;;;;;;;;8.68;100.00;101509.28;4899367;29;19931;-80
2024/01/26 05:41:40;;;;;;;;;;;;;;;8.68;100.00;101519.19;4899463;29;19923;-81
2024/01/26 05:44:05;;;;;;;;;;;;;;;8.71;100.00;101532.28;4898222;29;19939;-81
2024/01/26 05:46:30;;;;;;;;;;;;;;;8.74;100.00;101515.84;4899467;29;20300;-80
2024/01/26 05:48:58;;;;;;;;;;;;;;;8.73;100.00;101514.16;4899151;29;20308;-80
2024/01/26 05:51:24;;;;;;;;;;;;;;;8.77;100.00;101507.44;4898046;29;19930;-79
2024/01/26 05:53:51;;;;;;;;;;;;;;;8.81;100.00;101500.75;4899138;29;20403;-79
2024/01/26 05:56:16;;;;;;;;;;;;;;;8.81;100.00;101490.00;4899667;29;20285;-79
2024/01/26 05:58:44;;;;;;;;;;;;;;;8.80;100.00;101488.31;4898295;29;20423;-79
2024/01/26 06:01:09;;;;;;;;;;;;;;;8.81;100.00;101471.22;4899318;29;19923;-79
2024/01/26 06:03:34;;;;;;;;;;;;;;;8.82;100.00;101478.25;4899032;29;19930;-79
2024/01/26 06:06:00;;;;;;;;;;;;;;;8.82;100.00;101472.03;4898166;29;19924;-80
2024/01/26 06:08:25;;;;;;;;;;;;;;;8.82;100.00;101469.34;4899425;29;19923;-80
2024/01/26 06:10:51;;;;;;;;;;;;;;;8.82;100.00;101470.19;4899123;29;19924;-79
2024/01/26 06:13:17;;;;;;;;;;;;;;;8.76;100.00;101460.13;4897497;29;19990;-79
2024/01/26 06:15:42;;;;;;;;;;;;;;;8.78;100.00;101458.94;4898623;29;19935;-79
2024/01/26 06:18:08;;;;;;;;;;;;;;;8.81;100.00;101441.69;4898762;29;20026;-79
2024/01/26 06:20:34;;;;;;;;;;;;;;;8.77;100.00;101443.03;4904252;23;20026;-79
2024/01/26 06:23:02;;;;;;;;;;;;;;;8.75;100.00;101431.59;4898446;29;20336;-79
2024/01/26 06:25:27;;;;;;;;;;;;;;;8.72;100.00;101423.88;4899466;29;19930;-79
2024/01/26 06:27:52;;;;;;;;;;;;;;;8.70;100.00;101420.53;4896708;29;21652;-79
2024/01/26 06:30:23;;;;;;;;;;;;;;;8.68;100.00;101419.88;4898607;29;19991;-79
2024/01/26 06:32:48;;;;;;;;;;;;;;;8.68;100.00;101414.50;4894851;29;19938;-79
2024/01/26 06:35:13;;;;;;;;;;;;;;;8.62;100.00;101416.88;4898044;29;20018;-79
2024/01/26 06:37:40;;;;;;;;;;;;;;;8.59;100.00;101406.47;4898268;29;19966;-78
2024/01/26 06:40:08;;;;;;;;;;;;;;;8.54;100.00;101406.13;4898179;29;19987;-79
2024/01/26 06:42:36;;;;;;;;;;;;;;;8.52;100.00;101393.91;4897851;29;19935;-79
2024/01/26 06:45:01;;;;;;;;;;;;;;;8.49;100.00;101400.44;4893600;29;20339;-79
2024/01/26 06:47:27;;;;;;;;;;;;;;;8.47;100.00;101397.06;4898096;29;19927;-79
2024/01/26 06:49:52;;;;;;;;;;;;;;;8.46;100.00;101401.59;4898073;29;20101;-78
2024/01/26 06:52:17;;;;;;;;;;;;;;;8.45;100.00;101399.09;4890555;29;19971;-78
2024/01/26 06:54:42;;;;;;;;;;;;;;;8.40;100.00;101393.38;4897171;29;19973;-78
2024/01/26 06:57:08;;;;;;;;;;;;;;;8.35;100.00;101389.34;4896996;29;19959;-78
2024/01/26 06:59:37;;;;;;;;;;;;;;;8.33;100.00;101388.69;4897520;29;19983;-79
2024/01/26 07:02:02;;;;;;;;;;;;;;;8.32;100.00;101399.59;4898190;29;19927;-79
2024/01/26 07:04:27;;;;;;;;;;;;;;;8.23;100.00;101390.72;4897701;29;20377;-80
2024/01/26 07:06:52;;;;;;;;;;;;;;;8.26;100.00;101389.53;4897718;29;19982;-79
2024/01/26 07:09:18;;;;;;;;;;;;;;;8.21;100.00;101400.75;4893643;29;19981;-78
2024/01/26 07:11:43;;;;;;;;;;;;;;;8.21;100.00;101392.72;4894370;29;19971;-78
2024/01/26 07:14:10;;;;;;;;;;;;;;;8.21;100.00;101390.03;4895440;29;19978;-76
2024/01/26 07:16:35;;;;;;;;;;;;;;;8.16;100.00;101381.66;4896388;29;19979;-76
2024/01/26 07:19:00;;;;;;;;;;;;;;;8.14;100.00;101386.34;4895753;29;19931;-75
2024/01/26 07:21:25;;;;;;;;;;;;;;;8.13;100.00;101374.78;4895529;29;19982;-80
2024/01/26 07:23:51;;;;;;;;;;;;;;;8.07;100.00;101366.56;4894878;29;20300;-78
2024/01/26 07:26:19;;;;;;;;;;;;;;;8.07;100.00;101358.53;4895665;29;19935;-78
2024/01/26 07:28:45;;;;;;;;;;;;;;;8.03;100.00;101364.22;4895452;29;20028;-78
2024/01/26 07:31:10;;;;;;;;;;;;;;;8.03;100.00;101361.53;4895560;29;20010;-78
2024/01/26 07:33:35;;;;;;;;;;;;;;;8.02;100.00;101357.19;4895351;29;19963;-78
2024/01/26 07:36:02;;;;;;;;;;;;;;;8.06;100.00;101348.81;4894312;29;20141;-77
2024/01/26 07:38:28;;;;;;;;;;;;;;;8.06;100.00;101352.31;4895001;29;20006;-79
2024/01/26 07:40:53;;;;;;;;;;;;;;;8.04;100.00;101352.50;4895502;29;19966;-78
2024/01/26 07:43:19;;;;;;;;;;;;;;;8.07;100.00;101347.81;4894515;29;19923;-76
2024/01/26 07:45:47;;;;;;;;;;;;;;;8.04;100.00;101349.81;4896183;29;20423;-78
2024/01/26 07:48:12;;;;;;;;;;;;;;;8.08;100.00;101350.31;4895401;29;19923;-78
2024/01/26 07:50:41;;;;;;;;;;;;;;;8.08;100.00;101346.81;4894554;29;19930;-78
2024/01/26 07:53:06;;;;;;;;;;;;;;;8.08;100.00;101344.13;4895830;29;19931;-78
2024/01/26 07:55:34;;;;;;;;;;;;;;;8.08;100.00;101346.81;4895432;29;19923;-78
2024/01/26 07:58:00;;;;;;;;;;;;;;;8.11;100.00;101354.53;4894360;29;19962;-77
2024/01/26 08:00:25;;;;;;;;;;;;;;;8.16;100.00;101352.16;4895455;29;19971;-78
2024/01/26 08:02:50;;;;;;;;;;;;;;;8.20;100.00;101329.34;4895184;29;19927;-78
2024/01/26 08:05:15;;;;;;;;;;;;;;;8.24;100.00;101327.16;4894234;29;20018;-77
2024/01/26 08:07:41;;;;;;;;;;;;;;;8.22;100.00;101364.91;4894692;29;19923;-77
2024/01/26 08:10:06;;;;;;;;;;;;;;;8.27;100.00;101369.75;4901407;29;20010;-78
2024/01/26 08:12:32;;;;;;;;;;;;;;;8.31;100.00;101366.56;4908136;29;19973;-77
2024/01/26 08:14:57;;;;;;;;;;;;;;;8.28;100.00;101361.53;4895919;29;19955;-79
2024/01/26 08:17:22;;;;;;;;;;;;;;;8.32;100.00;101345.94;4895386;29;19935;-77
2024/01/26 08:19:47;;;;;;;;;;;;;;;8.40;100.00;101347.78;4894074;29;19935;-76
2024/01/26 08:22:12;;;;;;;;;;;;;;;8.41;100.00;101349.44;4893508;29;20063;-75
2024/01/26 08:24:38;;;;;;;;;;;;;;;8.39;100.00;101367.56;4894612;29;19923;-78
2024/01/26 08:27:03;;;;;;;;;;;;;;;8.42;100.00;101353.81;4894021;29;19967;-77
2024/01/26 08:29:28;;;;;;;;;;;;;;;8.45;100.00;101362.34;4894675;29;19923;-77
2024/01/26 08:31:54;;;;;;;;;;;;;;;8.46;100.00;101369.38;4889026;29;19982;-78
2024/01/26 08:34:19;;;;;;;;;;;;;;;8.37;100.00;101374.94;4893017;29;19927;-79
2024/01/26 08:36:47;;;;;;;;;;;;;;;8.45;100.00;101373.09;4893590;29;20341;-79
2024/01/26 08:39:15;;;;;;;;;;;;;;;8.45;100.00;101372.25;4893758;29;20406;-79
2024/01/26 08:41:43;;;;;;;;;;;;;;;8.48;100.00;101371.91;4893800;29;19923;-78
2024/01/26 08:44:08;;;;;;;;;;;;;;;8.45;100.00;101370.41;4892389;29;20014;-78
2024/01/26 08:46:34;;;;;;;;;;;;;;;8.52;100.00;101365.22;4892592;29;20006;-78
2024/01/26 08:48:59;;;;;;;;;;;;;;;8.54;100.00;101360.53;4892512;29;19924;-78
2024/01/26 08:51:24;;;;;;;;;;;;;;;8.56;100.00;101357.69;4893443;29;19935;-78
2024/01/26 08:53:49;;;;;;;;;;;;;;;8.57;100.00;101360.19;4893460;29;19986;-79
2024/01/26 08:56:15;;;;;;;;;;;;;;;8.62;100.00;101355.16;4893957;29;20018;-78
2024/01/26 08:58:40;;;;;;;;;;;;;;;8.63;100.00;101359.50;4893431;29;19923;-78
2024/01/26 09:01:05;;;;;;;;;;;;;;;8.69;100.00;101346.38;4890294;29;20395;-78
2024/01/26 09:03:31;;;;;;;;;;;;;;;8.71;100.00;101366.69;4893485;29;19924;-80
2024/01/26 09:05:57;;;;;;;;;;;;;;;8.75;100.00;101346.53;4893796;29;19927;-79
2024/01/26 09:08:22;;;;;;;;;;;;;;;8.76;100.00;101342.00;4893173;29;19930;-78
2024/01/26 09:10:47;;;;;;;;;;;;;;;8.87;100.00;101355.06;4893547;29;19943;-78
2024/01/26 09:13:12;;;;;;;;;;;;;;;8.86;100.00;101356.06;4893064;29;19927;-78
2024/01/26 09:15:38;;;;;;;;;;;;;;;8.88;100.00;101340.63;4890878;29;19923;-78
2024/01/26 09:18:03;;;;;;;;;;;;;;;8.94;100.00;101350.69;4893042;29;19938;-79
2024/01/26 09:20:28;;;;;;;;;;;;;;;8.87;100.00;101349.69;4894106;29;19923;-78
2024/01/26 09:22:53;;;;;;;;;;;;;;;8.90;100.00;101348.53;4893209;29;19931;-79
2024/01/26 09:25:19;;;;;;;;;;;;;;;9.00;100.00;101329.53;4894076;29;20510;-79
2024/01/26 09:27:45;;;;;;;;;;;;;;;9.01;100.00;101349.97;4893377;29;20386;-79
2024/01/26 09:30:10;;;;;;;;;;;;;;;8.97;100.00;101343.28;4893364;29;19962;-78
2024/01/26 09:32:35;;;;;;;;;;;;;;;8.95;100.00;101346.97;4893384;29;20335;-78
2024/01/26 09:35:04;;;;;;;;;;;;;;;9.00;100.00;101348.31;4894199;29;19958;-78
2024/01/26 09:37:29;;;;;;;;;;;;;;;9.04;100.00;101355.00;4893234;29;20002;-78
2024/01/26 09:39:57;;;;;;;;;;;;;;;9.01;100.00;101366.06;4893765;29;20027;-78
2024/01/26 09:42:23;;;;;;;;;;;;;;;9.03;100.00;101378.34;4893312;29;19987;-77
2024/01/26 09:44:48;;;;;;;;;;;;;;;9.00;100.00;101376.00;4876469;29;20330;-77
2024/01/26 09:47:13;;;;;;;;;;;;;;;8.99;100.00;101386.91;4878398;29;19990;-78
2024/01/26 09:49:38;;;;;;;;;;;;;;;9.02;100.00;101397.28;4897102;29;19924;-78
2024/01/26 09:52:04;;;;;;;;;;;;;;;9.03;100.00;101381.03;4897071;29;19924;-78
2024/01/26 09:54:29;;;;;;;;;;;;;;;9.04;100.00;101393.44;4896408;29;19938;-77
2024/01/26 09:56:54;;;;;;;;;;;;;;;9.03;100.00;101401.66;4896197;29;19924;-78
2024/01/26 09:59:20;;;;;;;;;;;;;;;9.05;100.00;101394.25;4897042;29;19971;-77
2024/01/26 10:01:45;;;;;;;;;;;;;;;9.09;100.00;101425.16;4896122;29;20399;-78
2024/01/26 10:04:10;;;;;;;;;;;;;;;9.07;100.00;101429.84;4895819;29;20321;-78
2024/01/26 10:06:35;;;;;;;;;;;;;;;9.05;100.00;101437.22;4897040;29;19924;-78
2024/01/26 10:09:03;;;;;;;;;;;;;;;9.03;100.00;101444.63;4896626;29;19934;-78
2024/01/26 10:11:29;;;;;;;;;;;;;;;9.05;100.00;101440.78;4895393;29;20406;-78
2024/01/26 10:13:54;;;;;;;;;;;;;;;9.10;100.00;101467.13;4896291;29;19927;-79
2024/01/26 10:16:19;;;;;;;;;;;;;;;8.70;100.00;101498.38;4895406;29;19931;-79
2024/01/26 10:18:45;;;;;;;;;;;;;;;8.26;100.00;101516.44;4895309;29;19924;-79
2024/01/26 10:21:11;;;;;;;;;;;;;;;7.82;100.00;101544.31;4896295;29;19923;-78
2024/01/26 10:23:36;;;;;;;;;;;;;;;7.63;100.00;101550.75;4898705;29;19924;-79
2024/01/26 10:26:04;;;;;;;;;;;;;;;7.39;100.00;101540.75;4896887;29;19923;-79
2024/01/26 10:28:29;;;;;;;;;;;;;;;7.23;100.00;101547.69;4896874;29;20489;-78
2024/01/26 10:30:55;;;;;;;;;;;;;;;7.14;100.00;101556.69;4885096;23;19936;-79
2024/01/26 10:33:23;;;;;;;;;;;;;;;7.07;100.00;101560.97;4895632;29;19995;-79
2024/01/26 10:35:50;;;;;;;;;;;;;;;7.04;100.00;101578.19;4896501;29;20006;-80
2024/01/26 10:38:15;;;;;;;;;;;;;;;6.99;100.00;101580.50;4896764;29;19927;-79
2024/01/26 10:40:43;;;;;;;;;;;;;;;7.01;100.00;101605.28;4877990;29;20304;-79
2024/01/26 10:43:08;;;;;;;;;;;;;;;7.02;100.00;101609.63;4894388;29;20265;-79
2024/01/26 10:45:34;;;;;;;;;;;;;;;7.01;100.00;101615.97;4880678;29;19982;-79
2024/01/26 10:48:11;;;;;;;;;;;;;;;7.04;100.00;101614.81;4926596;23;19935;-80
2024/01/26 10:50:39;;;;;;;;;;;;;;;7.09;100.00;101623.25;4931489;23;20767;-80
2024/01/26 10:53:19;;;;;;;;;;;;;;;7.12;100.00;101621.09;4896111;29;19927;-80
2024/01/26 10:55:47;;;;;;;;;;;;;;;7.21;100.00;101635.38;4896810;29;19934;-82
2024/01/26 10:58:19;;;;;;;;;;;;;;;7.30;100.00;101635.47;4894688;29;20388;-78
2024/01/26 11:00:44;;;;;;;;;;;;;;;7.38;100.00;101633.69;4896411;29;19931;-77
2024/01/26 11:03:09;;;;;;;;;;;;;;;7.41;100.00;101641.38;4895905;29;19931;-77
2024/01/26 11:05:35;;;;;;;;;;;;;;;7.41;100.00;101643.22;4896427;29;19924;-78
2024/01/26 11:08:05;;;;;;;;;;;;;;;7.48;100.00;101662.19;4895388;29;19928;-77
2024/01/26 11:10:30;;;;;;;;;;;;;;;7.45;100.00;101668.72;4894993;29;19934;-77
2024/01/26 11:13:02;;;;;;;;;;;;;;;7.30;100.00;101670.28;4879263;29;19923;-77
2024/01/26 11:15:27;;;;;;;;;;;;;;;7.30;100.00;101673.78;4894985;29;20473;-77
2024/01/26 11:17:53;;;;;;;;;;;;;;;7.39;100.00;101680.91;4895964;29;20014;-77
2024/01/26 11:20:30;;;;;;;;;;;;;;;7.44;100.00;101681.25;4895716;29;19927;-77
2024/01/26 11:22:58;;;;;;;;;;;;;;;7.65;100.00;101684.59;4895443;29;19923;-77
2024/01/26 11:25:24;;;;;;;;;;;;;;;7.93;100.00;101698.69;4888681;29;19928;-77
2024/01/26 11:27:56;;;;;;;;;;;;;;;7.93;100.00;101704.06;4895969;29;19930;-77
2024/01/26 11:30:25;;;;;;;;;;;;;;;7.84;100.00;101718.38;4895387;29;19924;-76
2024/01/26 11:32:50;;;;;;;;;;;;;;;7.78;100.00;101725.22;4901299;29;19943;-75
2024/01/26 11:35:15;;;;;;;;;;;;;;;7.96;100.00;101730.53;4891784;29;19923;-75
2024/01/26 11:37:41;;;;;;;;;;;;;;;8.13;99.49;101742.19;4897007;29;20257;-78
2024/01/26 11:40:10;;;;;;;;;;;;;;;8.04;96.88;101746.69;4888741;29;19923;-78
2024/01/26 11:42:36;;;;;;;;;;;;;;;7.99;90.19;101762.38;4877638;29;19924;-78
2024/01/26 11:45:16;;;;;;;;;;;;;;;7.85;90.89;101762.97;4895941;29;19956;-78
2024/01/26 11:47:42;;;;;;;;;;;;;;;7.85;86.37;101771.00;4889044;29;19971;-78
2024/01/26 11:50:10;;;;;;;;;;;;;;;7.76;88.71;101786.19;4894739;29;19927;-78
2024/01/26 11:52:38;;;;;;;;;;;;;;;7.87;88.92;101793.13;4888064;29;19934;-78
2024/01/26 11:55:03;;;;;;;;;;;;;;;7.70;83.30;101798.38;4895257;29;19924;-78
2024/01/26 11:57:29;;;;;;;;;;;;;;;7.66;86.04;101818.44;4893676;29;20368;-78
2024/01/26 11:59:54;;;;;;;;;;;;;;;7.67;84.79;101798.69;4895917;29;19995;-78
2024/01/26 12:02:20;;;;;;;;;;;;;;;7.69;86.08;101818.13;4895008;29;20183;-78
2024/01/26 12:04:45;;;;;;;;;;;;;;;7.58;86.83;101832.59;4893848;29;20018;-78
2024/01/26 12:07:11;;;;;;;;;;;;;;;7.61;85.51;101838.66;4895744;29;19938;-78
2024/01/26 12:09:36;;;;;;;;;;;;;;;7.64;83.96;101839.19;4894332;29;19950;-77
2024/01/26 12:12:07;;;;;;;;;;;;;;;7.78;83.53;101851.22;4883491;23;20408;-76
2024/01/26 12:14:33;;;;;;;;;;;;;;;7.66;84.42;101849.75;4878784;29;19923;-76
2024/01/26 12:16:58;;;;;;;;;;;;;;;7.77;86.26;101856.69;4894784;29;19923;-76
2024/01/26 12:19:23;;;;;;;;;;;;;;;7.69;84.41;101868.19;4876783;29;20017;-75
2024/01/26 12:21:48;;;;;;;;;;;;;;;7.72;83.54;101874.13;4895751;29;20010;-76
2024/01/26 12:24:40;;;;;;;;;;;;;;;7.69;84.27;101887.81;4894391;29;20022;-76
2024/01/26 12:27:05;;;;;;;;;;;;;;;7.53;81.09;101884.97;4874208;29;19923;-76
2024/01/26 12:29:32;;;;;;;;;;;;;;;7.43;83.47;101890.38;4895193;29;20296;-76
2024/01/26 12:32:04;;;;;;;;;;;;;;;7.26;82.05;101871.44;4893496;29;20122;-76